Rochelle, Illinois
Current Conditions -  °F | °C
As of 8:15 AM on Saturday 25 Oct 2014 (Local Time) from KRPJ Reporting Station
Moderate Fog Moderate Fog  
Wind Chill: 54°   Ceiling: 200
Heat Index: 54°   Visibility: 0mi
Dew Point: 54°   Wind: 7mph
Humidity: 100%   Direction: 260°W
Pressure: 29.96"   Gusts: NA
Location:  41.93°N, 89.07°W
Report Text: KRPJ 251315Z AUTO 26006KT M1/4SM FG OVC002 12/12 A2996 RMK AO2 T01220122
Loading
Personal Weather Stations






























Interactive Weather Map
Tropical Storm Tracking
New forecast layout! Learn more

10-Day Weather Forecast

Advertisements
Track Severe Weather on mobile